Time;durP1;ratioP1;P1;durP2;ratioP2;P2;SDS_P1;SDS_P2;PMS_P1;PMS_P2;Temp;Humidity;BMP_temperature;BMP_pressure;BME280_temperature;BME280_humidity;BME280_pressure;Samples;Min_cycle;Max_cycle;Signal;HPM_P1;HPM_P2
2023/06/13 00:00:14;;;;;;;3.83;2.90;;;16.50;75.30;;;16.40;50.65;96881.72;5053561;28;20035;-37
2023/06/13 00:02:40;;;;;;;3.42;2.88;;;16.50;76.50;;;16.31;51.86;96879.69;5057872;28;20037;-37
2023/06/13 00:05:16;;;;;;;4.40;3.28;;;16.40;77.70;;;16.23;52.85;96884.66;5057161;28;20037;-37
2023/06/13 00:07:43;;;;;;;4.63;3.10;;;16.30;78.60;;;16.14;52.75;96875.50;5059786;28;20036;-37
2023/06/13 00:10:09;;;;;;;3.95;2.97;;;16.30;78.30;;;16.07;53.33;96874.19;5058579;28;20028;-37
2023/06/13 00:12:36;;;;;;;4.63;3.15;;;16.20;78.60;;;15.99;53.38;96866.75;5059803;28;20095;-37
2023/06/13 00:15:04;;;;;;;3.40;2.92;;;16.10;78.70;;;15.91;53.67;96862.91;5057228;28;20039;-37
2023/06/13 00:17:31;;;;;;;4.22;3.28;;;16.10;78.70;;;15.94;53.26;96876.00;5054346;28;20046;-37
2023/06/13 00:20:00;;;;;;;6.50;3.42;;;16.00;78.40;;;15.97;52.71;96868.66;5060852;28;20039;-37
2023/06/13 00:22:28;;;;;;;4.88;3.22;;;16.10;78.00;;;15.90;52.67;96855.84;5055728;28;20028;-37
2023/06/13 00:24:53;;;;;;;4.80;3.22;;;16.10;77.70;;;15.97;53.41;96871.31;5063432;28;20036;-37
2023/06/13 00:27:19;;;;;;;4.57;3.05;;;16.10;78.40;;;15.93;54.50;96864.47;5062220;28;20044;-37
2023/06/13 00:29:45;;;;;;;3.88;3.08;;;16.00;79.20;;;15.89;55.23;96870.13;5054638;28;20500;-37
2023/06/13 00:32:10;;;;;;;4.05;3.20;;;16.00;79.80;;;15.86;55.12;96863.19;5051507;28;20185;-37
2023/06/13 00:34:38;;;;;;;6.93;3.17;;;16.00;79.80;;;15.77;54.68;96843.41;5050526;28;20028;-37
2023/06/13 00:37:05;;;;;;;4.57;3.55;;;16.00;79.40;;;15.84;54.21;96860.66;5047193;28;20048;-37
2023/06/13 00:39:31;;;;;;;3.88;2.90;;;16.00;78.90;;;15.98;52.69;96872.16;5054641;28;21458;-37
2023/06/13 00:41:56;;;;;;;5.95;3.95;;;16.00;77.80;;;16.03;52.69;96867.41;5059869;28;20035;-37
2023/06/13 00:44:22;;;;;;;4.88;3.50;;;16.10;77.80;;;15.95;53.00;96848.44;5051381;28;20043;-37
2023/06/13 00:46:48;;;;;;;4.28;3.38;;;16.20;78.00;;;16.04;53.71;96861.09;5056818;28;20489;-37
2023/06/13 00:49:15;;;;;;;3.88;2.97;;;16.20;78.30;;;16.06;53.19;96855.69;5056513;28;20042;-37
2023/06/13 00:51:44;;;;;;;5.43;3.20;;;16.20;78.40;;;16.06;52.61;96856.56;5054104;28;20078;-37
2023/06/13 00:54:13;;;;;;;4.65;3.15;;;16.20;78.00;;;16.09;52.73;96850.16;5060273;28;20024;-37
2023/06/13 00:56:40;;;;;;;4.32;3.47;;;16.20;77.90;;;16.08;53.49;96862.63;5061002;28;20035;-37
2023/06/13 00:59:08;;;;;;;6.32;3.28;;;16.20;78.60;;;16.05;54.15;96860.16;5056063;28;20101;-37
2023/06/13 01:01:36;;;;;;;5.30;3.33;;;16.20;79.10;;;16.02;54.73;96860.34;5059615;28;20044;-37
2023/06/13 01:04:03;;;;;;;4.60;3.35;;;16.10;79.40;;;15.99;54.39;96855.28;5056657;28;20081;-37
2023/06/13 01:06:30;;;;;;;5.13;3.10;;;16.10;79.30;;;15.92;54.51;96849.50;5060288;28;20039;-37
2023/06/13 01:08:58;;;;;;;6.10;3.38;;;16.10;79.20;;;15.93;54.42;96859.16;5058685;28;20469;-37
2023/06/13 01:11:51;;;;;;;4.45;3.38;;;16.10;79.30;;;15.87;55.03;96854.28;5056855;28;20160;-37
2023/06/13 01:14:30;;;;;;;3.83;2.97;;;16.00;79.70;;;15.84;54.85;96851.81;5056787;28;20150;-38
2023/06/13 01:17:15;;;;;;;4.78;3.70;;;16.00;79.60;;;15.82;54.77;96843.94;5060037;28;20505;-39
2023/06/13 01:19:47;;;;;;;5.55;3.10;;;15.90;79.60;;;15.80;55.63;96840.53;5059495;28;20577;-38
2023/06/13 01:22:20;;;;;;;4.78;3.33;;;15.90;80.10;;;15.77;55.00;96834.56;5060955;28;20025;-38
2023/06/13 01:25:13;;;;;;;4.90;3.13;;;15.90;79.80;;;15.74;55.29;96838.28;5065543;28;20047;-39
2023/06/13 01:27:39;;;;;;;4.57;3.40;;;15.90;80.00;;;15.70;55.64;96831.41;5062035;28;20024;-39
2023/06/13 01:30:07;;;;;;;6.35;2.95;;;15.80;80.20;;;15.73;56.06;96838.34;5048321;28;20021;-41
2023/06/13 01:32:34;;;;;;;5.05;3.40;;;15.80;80.80;;;15.72;55.66;96836.63;5062093;28;20032;-38
2023/06/13 01:35:01;;;;;;;5.28;3.53;;;15.80;80.40;;;15.68;55.48;96824.50;5060872;28;20096;-40
2023/06/13 01:37:27;;;;;;;5.15;3.22;;;15.80;80.10;;;15.69;56.00;96829.75;5057737;28;20474;-39
2023/06/13 01:39:52;;;;;;;4.90;3.28;;;15.80;80.50;;;15.66;56.69;96830.78;5054106;28;20085;-38
2023/06/13 01:42:18;;;;;;;5.88;3.40;;;15.80;81.20;;;15.62;56.68;96831.09;5055002;28;20032;-39
2023/06/13 01:44:44;;;;;;;5.47;2.92;;;15.80;80.90;;;15.57;57.11;96833.22;5055971;28;20477;-39
2023/06/13 01:47:46;;;;;;;3.95;3.00;;;15.70;81.30;;;15.50;58.21;96822.13;5057716;28;20040;-39
2023/06/13 01:50:31;;;;;;;4.30;3.08;;;15.70;82.20;;;15.43;58.33;96823.47;5057416;28;20024;-39
2023/06/13 01:53:28;;;;;;;4.03;3.20;;;15.60;82.40;;;15.43;58.16;96831.44;5055974;28;20058;-38
2023/06/13 01:56:02;;;;;;;5.05;3.00;;;15.60;82.20;;;15.41;58.17;96828.88;5056866;28;20056;-38
2023/06/13 01:58:48;;;;;;;4.60;3.05;;;15.50;82.30;;;15.35;58.86;96818.69;5055870;28;20028;-39
2023/06/13 02:01:15;;;;;;;4.88;3.03;;;15.50;82.70;;;15.24;60.57;96818.53;5061238;28;20052;-39
2023/06/13 02:03:41;;;;;;;5.80;2.97;;;15.40;83.70;;;15.17;60.19;96815.41;5047366;28;20036;-38
2023/06/13 02:06:07;;;;;;;4.60;3.03;;;15.30;83.50;;;15.15;60.56;96813.81;5057827;28;20032;-39
2023/06/13 02:08:33;;;;;;;3.55;2.80;;;15.30;83.80;;;15.06;60.65;96799.31;5056903;28;20064;-39
2023/06/13 02:10:59;;;;;;;3.65;2.90;;;15.30;83.90;;;15.11;60.69;96815.81;5058052;28;20516;-39
2023/06/13 02:13:25;;;;;;;9.13;3.58;;;15.30;83.90;;;15.13;60.61;96813.03;5061034;28;20136;-39
2023/06/13 02:15:50;;;;;;;4.72;3.08;;;15.30;84.10;;;15.12;61.68;96811.34;5059289;28;20040;-39
2023/06/13 02:18:16;;;;;;;3.97;3.17;;;15.30;84.60;;;15.17;64.52;96814.56;5057912;28;20051;-39
2023/06/13 02:20:42;;;;;;;4.40;3.03;;;15.30;86.60;;;15.11;63.64;96812.28;5055940;28;20040;-40
2023/06/13 02:23:09;;;;;;;3.47;2.80;;;15.30;85.70;;;14.97;64.17;96790.16;5066473;28;20031;-38
2023/06/13 02:25:35;;;;;;;4.43;2.70;;;15.30;85.90;;;15.03;65.21;96808.31;5055270;28;20039;-39
2023/06/13 02:28:01;;;;;;;3.97;2.97;;;15.20;86.60;;;14.99;66.46;96812.13;5045460;28;20044;-39
2023/06/13 02:30:27;;;;;;;6.00;3.25;;;15.20;87.20;;;14.93;68.19;96816.97;5049924;28;20068;-39
2023/06/13 02:32:53;;;;;;;3.78;2.80;;;15.10;88.20;;;14.83;68.74;96811.41;5055061;28;20039;-38
2023/06/13 02:35:22;;;;;;;5.10;3.17;;;15.00;88.50;;;14.78;67.39;96810.84;5050502;28;20040;-39
2023/06/13 02:37:56;;;;;;;5.57;3.20;;;15.00;87.90;;;14.73;68.10;96811.13;5059961;28;21780;-39
2023/06/13 02:40:23;;;;;;;5.68;3.08;;;14.90;87.90;;;14.67;68.55;96816.84;5055030;28;20438;-39
2023/06/13 02:42:50;;;;;;;5.47;3.05;;;14.80;88.40;;;14.62;69.07;96825.06;5055896;28;20043;-39
2023/06/13 02:45:16;;;;;;;3.58;2.85;;;14.80;88.90;;;14.55;69.59;96826.38;5056862;28;20036;-38
2023/06/13 02:47:43;;;;;;;6.13;3.20;;;14.80;89.30;;;14.48;69.95;96819.72;5057595;28;20021;-39
2023/06/13 02:50:09;;;;;;;3.88;3.20;;;14.70;90.00;;;14.44;69.84;96819.06;5054430;28;20028;-39
2023/06/13 02:52:35;;;;;;;4.30;3.33;;;14.60;89.30;;;14.36;69.75;96812.56;5061128;28;20043;-39
2023/06/13 02:55:02;;;;;;;5.00;2.90;;;14.60;89.40;;;14.36;70.20;96831.97;5061864;28;20029;-38
2023/06/13 02:57:28;;;;;;;4.95;2.95;;;14.60;89.80;;;14.33;69.48;96825.03;5056359;28;20574;-39
2023/06/13 02:59:54;;;;;;;6.97;3.03;;;14.50;89.40;;;14.32;69.49;96823.34;5058756;28;20036;-38
2023/06/13 03:02:21;;;;;;;4.80;3.00;;;14.50;89.40;;;14.22;69.50;96814.25;5054306;28;20320;-38
2023/06/13 03:04:50;;;;;;;3.78;3.03;;;14.50;89.50;;;14.26;68.85;96821.06;5057542;28;20028;-38
2023/06/13 03:07:16;;;;;;;4.60;2.60;;;14.50;89.20;;;14.24;69.45;96822.94;5056062;28;20032;-39
2023/06/13 03:09:42;;;;;;;4.95;2.60;;;14.40;89.40;;;14.22;69.05;96826.66;5060330;28;20085;-38
2023/06/13 03:12:08;;;;;;;4.00;2.55;;;14.40;89.40;;;14.16;68.93;96817.28;5064074;28;20033;-38
2023/06/13 03:14:34;;;;;;;4.93;2.90;;;14.40;89.20;;;14.20;71.59;96833.84;5062092;28;20577;-39
2023/06/13 03:17:02;;;;;;;3.92;2.90;;;14.40;90.30;;;14.20;71.27;96828.56;5058309;28;20036;-39
2023/06/13 03:19:28;;;;;;;4.78;2.55;;;14.40;90.20;;;14.17;74.58;96832.22;5060593;28;20100;-39
2023/06/13 03:21:54;;;;;;;5.00;3.03;;;14.40;90.90;;;14.12;78.07;96829.00;5065477;28;20441;-39
2023/06/13 03:24:20;;;;;;;4.65;2.90;;;14.30;91.70;;;14.09;77.04;96823.91;5060746;28;20036;-39
2023/06/13 03:26:46;;;;;;;4.93;2.97;;;14.20;91.50;;;14.03;76.27;96824.25;5061731;28;20040;-39
2023/06/13 03:29:12;;;;;;;5.47;2.85;;;14.20;91.30;;;14.03;75.04;96830.44;5064209;28;20390;-39
2023/06/13 03:31:38;;;;;;;4.70;2.75;;;14.30;91.20;;;14.01;76.64;96834.09;5059034;28;20032;-38
2023/06/13 03:34:05;;;;;;;5.43;2.72;;;14.20;91.40;;;13.94;77.08;96837.13;5058677;28;20020;-40
2023/06/13 03:36:34;;;;;;;3.08;2.60;;;14.20;91.60;;;13.97;76.41;96837.88;5055816;28;20048;-39
2023/06/13 03:39:00;;;;;;;4.63;2.92;;;14.20;91.50;;;13.95;76.60;96843.28;5058863;28;20288;-41
2023/06/13 03:41:26;;;;;;;3.85;2.80;;;14.20;91.70;;;13.93;76.47;96853.97;5054541;28;20044;-39
2023/06/13 03:43:52;;;;;;;8.27;3.22;;;14.10;91.50;;;13.90;77.91;96856.78;5056946;28;20124;-39
2023/06/13 03:46:18;;;;;;;5.32;3.00;;;14.10;91.90;;;13.86;78.13;96852.63;5055363;28;20075;-38
2023/06/13 03:48:43;;;;;;;4.18;3.00;;;14.00;92.00;;;13.81;78.16;96857.34;5057517;28;20012;-40
2023/06/13 03:51:09;;;;;;;5.78;3.10;;;14.00;92.00;;;13.75;78.86;96853.25;5056114;28;20558;-39
2023/06/13 03:53:35;;;;;;;4.57;2.67;;;13.90;92.10;;;13.71;79.71;96859.69;5056002;28;20670;-39
2023/06/13 03:56:02;;;;;;;3.70;2.42;;;13.90;92.40;;;13.70;78.21;96857.13;5048978;28;20041;-39
2023/06/13 03:58:28;;;;;;;3.17;2.45;;;13.90;92.10;;;13.69;78.45;96872.16;5055594;28;20028;-39
2023/06/13 04:00:54;;;;;;;5.88;3.10;;;13.90;92.30;;;13.65;80.05;96867.97;5052502;28;20040;-40
2023/06/13 04:03:20;;;;;;;4.25;2.97;;;13.90;92.50;;;13.62;81.02;96864.63;5056153;28;20092;-39
2023/06/13 04:05:46;;;;;;;4.68;2.88;;;13.90;92.70;;;13.63;79.33;96869.00;5057478;28;20040;-39
2023/06/13 04:08:12;;;;;;;3.55;2.42;;;13.90;92.50;;;13.68;78.83;96875.75;5057214;28;20043;-40
2023/06/13 04:10:37;;;;;;;3.38;2.80;;;13.90;92.40;;;13.74;78.87;96869.22;5053092;28;20047;-39
2023/06/13 04:13:03;;;;;;;5.35;2.88;;;13.90;92.40;;;13.74;75.91;96855.97;5054102;28;20046;-38
2023/06/13 04:15:29;;;;;;;3.85;2.72;;;14.00;92.00;;;13.92;74.96;96869.94;5058930;28;20131;-39
2023/06/13 04:17:55;;;;;;;4.22;3.00;;;14.10;91.60;;;14.02;75.76;96871.13;5078370;23;20052;-37
2023/06/13 04:20:23;;;;;;;6.40;2.85;;;14.20;91.90;;;14.12;76.16;96872.28;5043740;28;20028;-37
2023/06/13 04:22:48;;;;;;;5.85;2.88;;;14.30;92.00;;;14.23;74.90;96870.78;5043598;28;20621;-37
2023/06/13 04:25:15;;;;;;;6.55;2.72;;;14.40;91.70;;;14.27;77.12;96872.31;5043996;28;20041;-37
2023/06/13 04:27:43;;;;;;;5.68;2.88;;;14.50;91.90;;;14.34;71.99;96871.00;5048599;28;20033;-36
2023/06/13 04:30:11;;;;;;;5.07;2.80;;;14.50;91.10;;;14.40;73.36;96872.44;5044072;28;20024;-36
2023/06/13 04:32:37;;;;;;;5.47;3.08;;;14.60;91.40;;;14.44;72.33;96872.13;5044715;28;20028;-36
2023/06/13 04:35:03;;;;;;;4.57;2.90;;;14.60;91.20;;;14.49;70.82;96869.22;5055960;28;20035;-36
2023/06/13 04:37:30;;;;;;;5.25;2.78;;;14.70;90.90;;;14.56;70.97;96875.84;5051607;28;20029;-37
2023/06/13 04:39:57;;;;;;;3.67;2.47;;;14.70;90.90;;;14.62;69.47;96872.84;5045978;28;23234;-36
2023/06/13 04:42:27;;;;;;;4.60;2.33;;;14.80;90.60;;;14.70;68.23;96881.19;5042835;28;20029;-37
2023/06/13 04:45:01;;;;;;;4.32;2.60;;;14.90;90.30;;;14.79;65.58;96884.25;5041147;28;20028;-37
2023/06/13 04:47:29;;;;;;;7.05;2.80;;;15.00;89.40;;;14.91;67.39;96883.44;5048279;28;20058;-36
2023/06/13 04:49:58;;;;;;;5.40;2.60;;;15.10;90.00;;;14.94;67.44;96885.91;5046359;28;20036;-36
2023/06/13 04:52:32;;;;;;;5.28;3.20;;;15.10;90.20;;;15.03;64.28;96892.44;5047621;28;20033;-36
2023/06/13 04:55:43;;;;;;;3.55;2.47;;;15.20;88.70;;;15.10;63.03;96884.97;5046119;28;20556;-36
2023/06/13 04:58:08;;;;;;;4.35;2.72;;;15.20;87.90;;;15.17;64.50;96876.50;5035794;28;20033;-36
2023/06/13 05:00:34;;;;;;;9.48;2.40;;;15.30;89.20;;;15.22;65.41;96887.69;5048615;28;20397;-36
2023/06/13 05:03:00;;;;;;;4.38;2.75;;;15.40;88.60;;;15.28;65.05;96883.78;5050449;28;20028;-36
2023/06/13 05:05:26;;;;;;;3.67;2.55;;;15.40;89.00;;;15.28;63.79;96881.97;5049673;28;20040;-37
2023/06/13 05:07:59;;;;;;;5.55;2.22;;;15.50;88.50;;;15.34;62.49;96885.19;5051464;28;20378;-36
2023/06/13 05:10:26;;;;;;;5.65;2.70;;;15.50;87.80;;;15.42;58.04;96893.53;5048909;28;20505;-37
2023/06/13 05:12:52;;;;;;;6.20;2.78;;;15.60;85.00;;;15.58;55.89;96898.72;5052270;28;20025;-37
2023/06/13 05:15:22;;;;;;;3.53;2.53;;;15.70;83.50;;;15.63;54.98;96891.25;5038717;28;20034;-37
2023/06/13 05:17:52;;;;;;;5.18;2.35;;;15.80;82.90;;;15.73;55.64;96894.19;5048256;28;20031;-37
2023/06/13 05:20:22;;;;;;;3.50;2.45;;;15.90;83.10;;;15.83;54.71;96892.66;5048672;28;20119;-39
2023/06/13 05:22:50;;;;;;;5.88;2.67;;;15.90;82.50;;;15.98;54.84;96896.09;5040317;28;20043;-38
2023/06/13 05:25:17;;;;;;;6.10;2.60;;;16.10;82.80;;;16.22;52.58;96905.09;5046362;28;20037;-37
2023/06/13 05:27:43;;;;;;;4.45;2.80;;;16.30;81.40;;;16.81;50.23;96895.75;5050065;28;20032;-39
2023/06/13 05:30:11;;;;;;;12.68;3.08;;;16.50;79.20;;;17.38;51.56;96898.88;5041945;28;20482;-38
2023/06/13 05:32:52;;;;;;;6.40;3.05;;;16.80;81.40;;;17.55;46.03;96888.69;5050526;28;20615;-38
2023/06/13 05:35:18;;;;;;;4.63;2.42;;;17.10;75.20;;;17.59;46.94;96896.47;5045929;28;20029;-40
2023/06/13 05:37:44;;;;;;;6.70;2.47;;;17.20;76.40;;;17.50;47.18;96895.34;5054293;28;20040;-38
2023/06/13 05:40:10;;;;;;;5.72;2.75;;;17.30;76.80;;;17.25;48.74;96881.13;5053854;28;20367;-38
2023/06/13 05:42:37;;;;;;;4.57;2.70;;;17.20;77.40;;;17.16;48.95;96884.44;5057702;28;20102;-38
2023/06/13 05:45:04;;;;;;;4.07;2.35;;;17.10;77.80;;;17.09;49.11;96891.19;5056207;28;20032;-38
2023/06/13 05:47:30;;;;;;;6.38;2.28;;;17.10;77.80;;;17.05;48.36;96897.66;5059414;28;20124;-38
2023/06/13 05:49:56;;;;;;;8.35;2.50;;;17.20;76.30;;;17.07;46.98;96895.75;5056399;28;20497;-37
2023/06/13 05:52:21;;;;;;;4.13;2.80;;;17.20;74.50;;;17.11;46.71;96894.59;5061349;28;20039;-38
2023/06/13 05:54:47;;;;;;;4.13;2.60;;;17.20;74.50;;;17.21;47.23;96906.28;5059193;28;20029;-38
2023/06/13 05:57:13;;;;;;;4.30;2.40;;;17.30;74.80;;;17.31;47.01;96896.66;5057240;28;20033;-36
2023/06/13 05:59:39;;;;;;;4.55;2.70;;;17.40;74.80;;;17.39;46.32;96887.25;5058567;28;20032;-37
2023/06/13 06:02:05;;;;;;;4.47;2.53;;;17.50;73.90;;;17.52;45.66;96899.59;5055503;28;20041;-39
2023/06/13 06:04:31;;;;;;;4.53;2.90;;;17.60;72.90;;;17.66;46.76;96892.41;5056747;28;20044;-38
2023/06/13 06:06:57;;;;;;;5.75;2.67;;;17.70;74.50;;;17.77;45.37;96888.94;5061198;28;20098;-40
2023/06/13 06:09:22;;;;;;;4.32;2.60;;;17.80;74.00;;;17.78;44.60;96886.13;5058367;28;20020;-39
2023/06/13 06:11:50;;;;;;;3.58;2.60;;;17.90;71.90;;;17.94;43.57;96896.56;5055901;28;20036;-39
2023/06/13 06:14:15;;;;;;;4.22;2.42;;;18.00;70.60;;;18.09;46.32;96894.56;5055765;28;20158;-40
2023/06/13 06:16:41;;;;;;;6.15;2.40;;;18.10;73.40;;;18.12;42.24;96892.53;5058874;28;20044;-38
2023/06/13 06:19:07;;;;;;;3.38;2.30;;;18.10;68.50;;;18.28;42.65;96891.34;5057630;28;20487;-38
2023/06/13 06:21:32;;;;;;;3.25;2.30;;;18.30;69.20;;;18.36;41.92;96891.63;5055423;28;20029;-38
2023/06/13 06:23:58;;;;;;;5.40;2.65;;;18.30;68.20;;;18.42;42.70;96885.78;5054992;28;20041;-38
2023/06/13 06:26:24;;;;;;;5.70;2.63;;;18.40;69.10;;;18.51;41.50;96887.75;5056035;28;20094;-38
2023/06/13 06:28:50;;;;;;;5.47;2.70;;;18.50;68.10;;;18.62;43.06;96891.41;5058197;28;20064;-39
2023/06/13 06:31:16;;;;;;;4.25;2.83;;;18.60;69.80;;;18.72;41.93;96881.72;5055218;28;20021;-38
2023/06/13 06:33:42;;;;;;;6.45;2.40;;;18.70;69.40;;;18.74;41.25;96873.59;5055015;28;20029;-38
2023/06/13 06:36:07;;;;;;;5.65;2.33;;;18.70;67.70;;;18.85;42.83;96887.00;5058303;28;20028;-38
2023/06/13 06:38:33;;;;;;;3.80;2.25;;;18.80;69.10;;;18.91;43.14;96896.34;5056490;28;20476;-38
2023/06/13 06:40:59;;;;;;;4.57;2.60;;;18.90;69.30;;;18.95;39.26;96892.44;5059863;28;20468;-39
2023/06/13 06:43:24;;;;;;;7.97;2.58;;;19.00;65.10;;;19.01;39.65;96892.81;5057523;28;20033;-38
2023/06/13 06:45:51;;;;;;;4.60;2.30;;;19.00;65.20;;;19.14;38.95;96892.69;5056167;28;20078;-38
2023/06/13 06:48:17;;;;;;;2.95;2.35;;;19.10;64.20;;;19.29;38.96;96889.75;5056667;28;20020;-40
2023/06/13 06:50:42;;;;;;;3.30;2.30;;;19.20;63.30;;;19.39;36.99;96891.56;5060081;28;20036;-39
2023/06/13 06:53:08;;;;;;;4.60;2.40;;;19.30;61.50;;;19.57;37.74;96897.25;5055828;28;20033;-39
2023/06/13 06:55:34;;;;;;;5.18;2.70;;;19.40;61.90;;;19.61;36.87;96898.72;5057459;28;20680;-39
2023/06/13 06:57:59;;;;;;;5.97;2.55;;;19.50;61.00;;;19.76;41.61;96898.47;5055959;28;20073;-39
2023/06/13 07:00:25;;;;;;;4.43;2.53;;;19.60;67.00;;;19.88;38.54;96896.59;5052225;28;20039;-38
2023/06/13 07:02:51;;;;;;;3.85;2.40;;;19.80;64.90;;;19.94;37.53;96896.94;5060584;28;20040;-37
2023/06/13 07:05:17;;;;;;;7.03;2.35;;;19.80;61.50;;;20.02;38.59;96897.13;5055359;28;20032;-38
2023/06/13 07:07:44;;;;;;;4.25;2.50;;;19.90;63.30;;;20.01;38.43;96903.47;5055551;28;20540;-38
2023/06/13 07:10:10;;;;;;;4.60;2.65;;;19.90;63.10;;;20.03;38.30;96889.97;5059121;28;20025;-37
2023/06/13 07:12:37;;;;;;;5.35;2.60;;;20.00;61.80;;;20.04;36.71;96888.97;5053375;28;20032;-38
2023/06/13 07:15:03;;;;;;;3.78;2.45;;;20.00;60.00;;;20.12;40.12;96891.03;5058094;28;20036;-38
2023/06/13 07:17:30;;;;;;;5.85;2.47;;;20.10;62.90;;;20.09;38.47;96886.78;5053327;28;20033;-37
2023/06/13 07:19:56;;;;;;;3.35;2.65;;;20.10;63.10;;;20.14;37.42;96891.75;5052334;28;20024;-38
2023/06/13 07:22:22;;;;;;;3.70;2.47;;;20.10;61.60;;;20.11;35.57;96887.50;5053459;28;20074;-38
2023/06/13 07:24:48;;;;;;;8.02;2.30;;;20.10;58.80;;;20.15;34.97;96888.09;5048131;28;20501;-38
2023/06/13 07:27:15;;;;;;;3.97;2.40;;;20.10;58.50;;;20.17;35.08;96889.66;5050776;28;20039;-37
2023/06/13 07:29:41;;;;;;;4.43;2.50;;;20.20;58.70;;;20.26;36.37;96896.09;5052672;28;20029;-38
2023/06/13 07:32:07;;;;;;;3.80;2.63;;;20.20;59.00;;;20.26;35.06;96895.22;5052351;28;20474;-38
2023/06/13 07:34:33;;;;;;;5.95;2.70;;;20.20;57.80;;;20.37;36.54;96892.50;5046608;28;20036;-38
2023/06/13 07:36:59;;;;;;;3.75;2.25;;;20.30;60.50;;;20.38;35.09;96892.34;5052903;28;20649;-38
2023/06/13 07:39:25;;;;;;;4.03;2.25;;;20.40;58.00;;;20.47;37.73;96888.03;5053020;28;20041;-38
2023/06/13 07:41:51;;;;;;;6.75;2.50;;;20.40;61.40;;;20.49;37.23;96885.22;5052635;28;20598;-39
2023/06/13 07:44:16;;;;;;;3.55;2.38;;;20.50;61.50;;;20.67;36.86;96890.88;5047344;28;20025;-40
2023/06/13 07:46:44;;;;;;;6.70;2.40;;;20.50;60.90;;;20.59;35.81;96886.16;5050867;28;20036;-39
2023/06/13 07:49:09;;;;;;;5.45;2.63;;;20.60;58.50;;;20.60;34.77;96894.06;5050339;28;20067;-37
2023/06/13 07:51:35;;;;;;;5.18;2.58;;;20.60;57.70;;;20.62;34.25;96887.72;5044308;28;20474;-38
2023/06/13 07:54:01;;;;;;;5.38;2.70;;;20.60;56.70;;;20.67;34.98;96878.31;5051708;28;20033;-37
2023/06/13 07:56:26;;;;;;;3.75;2.38;;;20.60;57.70;;;20.77;33.19;96873.88;5055932;28;20025;-38
2023/06/13 07:58:52;;;;;;;5.45;3.03;;;20.70;56.20;;;20.69;32.85;96873.69;5051796;28;20060;-37
2023/06/13 08:01:21;;;;;;;3.30;2.17;;;20.70;54.50;;;20.78;33.54;96872.03;5059402;28;20028;-37
2023/06/13 08:03:47;;;;;;;2.55;2.08;;;20.70;55.60;;;20.92;34.16;96871.69;5055211;28;20041;-38
2023/06/13 08:06:12;;;;;;;5.22;2.53;;;20.80;56.50;;;20.95;33.05;96862.53;5056958;28;20389;-38
2023/06/13 08:08:38;;;;;;;5.30;2.92;;;20.90;56.20;;;20.98;34.05;96854.22;5052051;28;20032;-37
2023/06/13 08:11:04;;;;;;;4.20;2.45;;;21.00;56.90;;;21.16;34.64;96868.69;5057543;28;20032;-37
2023/06/13 08:13:30;;;;;;;5.50;2.60;;;21.10;57.70;;;21.11;33.03;96870.06;5052379;28;20036;-38
2023/06/13 08:15:55;;;;;;;7.22;2.42;;;21.20;55.00;;;21.09;33.13;96867.53;5048816;28;20222;-37
2023/06/13 08:18:21;;;;;;;8.10;2.97;;;21.10;55.00;;;21.26;34.00;96876.75;5049346;28;20485;-37
2023/06/13 08:20:48;;;;;;;4.75;2.60;;;21.10;56.60;;;21.30;35.17;96882.69;5046599;28;20067;-39
2023/06/13 08:23:14;;;;;;;8.63;2.45;;;21.20;57.50;;;21.39;34.68;96875.66;5050264;28;20025;-38
2023/06/13 08:25:41;;;;;;;3.75;2.53;;;21.30;58.10;;;21.43;34.29;96867.22;5051047;28;20128;-37
2023/06/13 08:28:07;;;;;;;5.60;2.70;;;21.40;59.00;;;21.51;35.04;96871.91;5047601;28;20401;-38
2023/06/13 08:30:33;;;;;;;4.35;3.15;;;21.40;57.70;;;21.52;33.58;96868.25;5043685;28;20028;-39
2023/06/13 08:33:01;;;;;;;6.10;2.60;;;21.50;56.20;;;21.51;34.12;96866.56;5051657;28;21067;-38
2023/06/13 08:35:28;;;;;;;7.20;2.92;;;21.50;56.20;;;21.58;33.78;96867.69;5051665;28;20091;-38
2023/06/13 08:37:53;;;;;;;4.05;2.53;;;21.50;57.00;;;21.60;33.48;96876.44;5049849;28;20025;-37
2023/06/13 08:40:19;;;;;;;3.25;2.45;;;21.50;56.10;;;21.69;32.98;96866.72;5050752;28;20032;-39
2023/06/13 08:42:46;;;;;;;3.28;2.45;;;21.60;55.80;;;21.80;33.22;96871.13;5052344;28;20456;-39
2023/06/13 08:45:13;;;;;;;4.03;2.88;;;21.70;56.10;;;21.79;32.80;96875.66;5049223;28;20024;-38
2023/06/13 08:47:40;;;;;;;2.97;2.40;;;21.70;54.80;;;21.77;33.30;96883.00;5054097;28;20031;-37
2023/06/13 08:50:07;;;;;;;5.88;2.78;;;21.70;55.00;;;21.75;32.47;96871.56;5056804;28;20035;-38
2023/06/13 08:52:39;;;;;;;5.03;2.70;;;21.70;54.80;;;21.69;33.13;96870.25;5054518;28;20036;-39
2023/06/13 08:55:14;;;;;;;6.60;3.10;;;21.70;55.60;;;21.72;34.53;96871.81;5053917;28;20471;-38
2023/06/13 08:57:41;;;;;;;7.43;2.83;;;21.60;56.30;;;21.83;35.19;96863.63;5051273;28;20255;-37
2023/06/13 09:00:11;;;;;;;3.90;2.80;;;21.70;57.90;;;21.97;35.24;96859.69;5051683;28;20009;-38
2023/06/13 09:02:36;;;;;;;5.53;3.10;;;21.90;58.50;;;22.11;32.40;96864.63;5053485;28;20567;-38
2023/06/13 09:05:03;;;;;;;5.22;2.63;;;22.00;55.80;;;22.14;32.44;96859.97;5056435;28;20115;-37
2023/06/13 09:07:30;;;;;;;4.85;2.80;;;22.10;54.70;;;22.14;32.66;96868.88;5056813;28;20033;-37
2023/06/13 09:09:58;;;;;;;3.55;2.72;;;22.10;55.30;;;22.15;31.58;96853.63;5048616;28;20031;-37
2023/06/13 09:12:25;;;;;;;6.80;2.80;;;22.10;53.40;;;22.08;31.20;96856.84;5047824;28;20037;-38
2023/06/13 09:14:52;;;;;;;8.80;2.70;;;22.10;52.50;;;22.07;32.02;96865.06;5051848;28;20028;-37
2023/06/13 09:17:18;;;;;;;5.05;3.03;;;22.10;53.90;;;22.02;30.81;96851.19;5058481;28;20064;-37
2023/06/13 09:19:44;;;;;;;5.18;3.10;;;22.10;51.60;;;22.00;31.65;96864.78;5055843;28;20074;-37
2023/06/13 09:22:10;;;;;;;6.78;2.92;;;22.00;52.90;;;21.97;31.27;96854.31;5053319;28;20032;-38
2023/06/13 09:24:36;;;;;;;5.85;3.10;;;22.00;52.80;;;21.90;32.48;96842.44;5049442;28;20547;-38
2023/06/13 09:27:03;;;;;;;7.30;2.78;;;21.90;54.50;;;21.95;34.98;96852.75;5052119;28;20517;-39
2023/06/13 09:29:34;;;;;;;3.42;2.65;;;21.90;54.60;;;21.94;33.16;96851.91;5050479;28;20032;-37
2023/06/13 09:32:01;;;;;;;7.03;3.05;;;22.00;55.30;;;21.99;33.54;96846.13;5055006;28;20036;-37
2023/06/13 09:34:30;;;;;;;7.65;2.65;;;22.00;55.60;;;22.15;34.34;96859.00;5048709;28;20475;-40
2023/06/13 09:36:57;;;;;;;10.70;3.28;;;22.10;57.30;;;22.09;31.93;96846.97;5052847;28;20058;-38
2023/06/13 09:39:27;;;;;;;5.10;2.70;;;22.10;53.60;;;22.15;32.89;96850.94;5055235;28;20524;-38
2023/06/13 09:41:58;;;;;;;3.88;2.42;;;22.10;54.50;;;22.15;32.13;96843.72;5058309;28;20036;-38
2023/06/13 09:44:24;;;;;;;4.82;2.80;;;22.10;54.30;;;22.23;32.45;96838.47;5054708;28;20582;-38
2023/06/13 09:46:54;;;;;;;6.75;3.25;;;22.20;55.50;;;22.30;32.22;96834.25;5054047;28;20039;-37
2023/06/13 09:49:20;;;;;;;4.68;3.08;;;22.20;53.80;;;22.40;32.63;96847.69;5054217;28;20375;-37
2023/06/13 09:51:46;;;;;;;6.03;3.03;;;22.30;54.40;;;22.37;31.56;96831.84;5058370;28;20020;-38
2023/06/13 09:54:13;;;;;;;4.93;2.50;;;22.40;52.70;;;22.44;30.86;96846.38;5054849;28;20051;-37
2023/06/13 09:56:43;;;;;;;3.65;2.83;;;22.40;52.90;;;22.38;30.13;96835.38;5053043;28;20028;-39
2023/06/13 09:59:17;;;;;;;4.28;3.03;;;22.40;51.20;;;22.34;30.45;96831.28;5047294;28;20081;-38
2023/06/13 10:01:47;;;;;;;4.68;2.80;;;22.40;52.00;;;22.49;30.95;96824.47;5057458;28;20420;-37
2023/06/13 10:04:12;;;;;;;2.80;2.47;;;22.40;52.50;;;22.58;33.60;96828.97;5058226;28;20387;-38
2023/06/13 10:06:38;;;;;;;3.88;2.63;;;22.50;53.20;;;22.76;31.74;96822.84;5062733;28;20040;-38
2023/06/13 10:09:04;;;;;;;4.38;3.25;;;22.60;53.60;;;22.77;30.77;96824.53;5056958;28;20310;-38
2023/06/13 10:11:35;;;;;;;4.40;2.85;;;22.70;52.30;;;22.83;31.79;96829.31;5059635;28;20139;-38
2023/06/13 10:14:10;;;;;;;4.88;2.85;;;22.70;52.30;;;22.86;30.77;96820.94;5059227;28;20078;-38
2023/06/13 10:16:52;;;;;;;3.33;2.72;;;22.80;52.60;;;22.91;29.84;96823.19;5053281;28;20032;-38
2023/06/13 10:19:22;;;;;;;5.47;2.92;;;22.90;51.50;;;22.94;29.16;96820.22;5053374;28;20273;-37
2023/06/13 10:21:48;;;;;;;5.03;2.90;;;22.90;50.30;;;22.90;29.77;96816.13;5053664;28;20045;-37